XS80 weather

Scout Airport
Comfort, Texas, United States

Public forecast

Using degrees Fahrenheit for public forecast. Weather courtesy of forecast.io.

Closest aviation weather report (METAR) to Scout Airport

Closest report is Kerrville Municipal Louis Schreiner Field, 7.9 nm (14.6 km) W. Retrieved 2019/11/16 00:35 UTC (0 seconds ago):

KERV 160035Z AUTO 00000KT 10SM CLR 10/01 A3028 RMK AO2 T01020011

Closest aviation forecast (TAF) to Scout Airport

Closest forecast is San Antonio International Airport, 35.8 nm (66.3 km) SE. Retrieved 2019-11-16 00:22 UTC (3 minutes ago):

TAF KSAT 152320Z 1600/1706 33004KT P6SM SKC FM161700 16005KT P6SM FEW250